Time;durP1;ratioP1;P1;durP2;ratioP2;P2;SDS_P1;SDS_P2;PMS_P1;PMS_P2;Temp;Humidity;BMP_temperature;BMP_pressure;BME280_temperature;BME280_humidity;BME280_pressure;Samples;Min_cycle;Max_cycle;Signal;HPM_P1;HPM_P2
2021/04/11 00:00:42;;;;;;;0.73;0.70;;;20.80;42.30;;;;;;5014402;28;20416;-72
2021/04/11 00:03:09;;;;;;;0.88;0.88;;;20.80;42.40;;;;;;5008071;28;20428;-68
2021/04/11 00:05:37;;;;;;;1.90;0.80;;;20.80;42.30;;;;;;5000538;28;20773;-71
2021/04/11 00:08:03;;;;;;;1.33;0.70;;;20.80;42.30;;;;;;5003722;28;20417;-68
2021/04/11 00:10:32;;;;;;;1.10;0.90;;;20.90;42.40;;;;;;5014664;28;21073;-69
2021/04/11 00:12:58;;;;;;;0.95;0.80;;;20.90;42.20;;;;;;5008164;28;20945;-71
2021/04/11 00:15:24;;;;;;;1.50;0.90;;;20.90;42.10;;;;;;5008085;28;20435;-68
2021/04/11 00:17:51;;;;;;;1.10;0.80;;;20.90;42.10;;;;;;4998412;28;20426;-70
2021/04/11 00:20:19;;;;;;;0.70;0.70;;;21.00;42.10;;;;;;5018666;28;20494;-69
2021/04/11 00:22:45;;;;;;;0.70;0.70;;;20.90;42.00;;;;;;5008421;28;20424;-69
2021/04/11 00:25:12;;;;;;;1.70;0.70;;;20.90;42.10;;;;;;5001344;28;20918;-71
2021/04/11 00:27:38;;;;;;;0.88;0.88;;;20.90;42.10;;;;;;5016468;28;20456;-68
2021/04/11 00:30:05;;;;;;;1.20;0.80;;;20.90;42.40;;;;;;5005050;28;20408;-70
2021/04/11 00:32:31;;;;;;;0.80;0.80;;;20.80;42.20;;;;;;4999851;28;20422;-68
2021/04/11 00:34:57;;;;;;;1.43;0.70;;;20.80;42.40;;;;;;5006590;28;20432;-69
2021/04/11 00:37:24;;;;;;;0.80;0.70;;;20.80;42.40;;;;;;5010394;28;20417;-69
2021/04/11 00:39:50;;;;;;;0.60;0.60;;;20.80;42.50;;;;;;5008449;28;20477;-70
2021/04/11 00:42:19;;;;;;;1.20;0.60;;;20.80;42.50;;;;;;5006283;28;20497;-68
2021/04/11 00:44:45;;;;;;;0.80;0.80;;;20.80;42.40;;;;;;5007767;28;20431;-70
2021/04/11 00:47:11;;;;;;;0.80;0.80;;;20.80;42.60;;;;;;4996949;28;20447;-70
2021/04/11 00:49:38;;;;;;;1.40;0.65;;;20.80;42.40;;;;;;5016852;28;20408;-69
2021/04/11 00:52:05;;;;;;;0.90;0.90;;;20.80;42.50;;;;;;5003613;28;20405;-71
2021/04/11 00:54:32;;;;;;;1.00;0.67;;;20.80;42.50;;;;;;5006400;28;20422;-69
2021/04/11 00:56:59;;;;;;;0.90;0.80;;;20.80;42.50;;;;;;5007584;28;20480;-68
2021/04/11 00:59:26;;;;;;;1.30;0.90;;;20.80;42.60;;;;;;5005966;28;20440;-69
2021/04/11 01:01:52;;;;;;;0.60;0.60;;;20.80;42.50;;;;;;5001752;28;20422;-72
2021/04/11 01:04:19;;;;;;;1.13;0.80;;;20.80;42.60;;;;;;5002258;28;20846;-71
2021/04/11 01:06:46;;;;;;;1.00;0.70;;;20.90;42.50;;;;;;5006773;28;21015;-71
2021/04/11 01:09:15;;;;;;;1.00;0.88;;;20.90;42.40;;;;;;4999228;28;20434;-69
2021/04/11 01:11:42;;;;;;;1.10;0.80;;;20.90;42.30;;;;;;5012791;28;21620;-68
2021/04/11 01:14:08;;;;;;;1.20;0.82;;;20.90;42.30;;;;;;5016408;28;21450;-70
2021/04/11 01:16:34;;;;;;;1.10;1.00;;;20.90;42.30;;;;;;4997122;28;20431;-70
2021/04/11 01:19:00;;;;;;;1.50;0.80;;;20.90;42.30;;;;;;5018197;28;20473;-70
2021/04/11 01:21:30;;;;;;;1.20;1.20;;;20.90;42.40;;;;;;5011281;28;20429;-69
2021/04/11 01:24:02;;;;;;;0.80;0.80;;;20.90;42.40;;;;;;5005368;28;20415;-69
2021/04/11 01:26:31;;;;;;;1.30;0.85;;;20.90;42.60;;;;;;5004900;28;20490;-71
2021/04/11 01:28:57;;;;;;;0.75;0.75;;;20.90;43.10;;;;;;4995769;28;20436;-70
2021/04/11 01:31:23;;;;;;;0.98;0.80;;;21.00;42.30;;;;;;5003484;28;20434;-69
2021/04/11 01:33:50;;;;;;;1.10;1.00;;;21.00;42.30;;;;;;5008879;28;21587;-71
2021/04/11 01:36:22;;;;;;;0.80;0.80;;;21.00;42.20;;;;;;4992980;28;20418;-69
2021/04/11 01:38:48;;;;;;;1.83;0.82;;;21.00;42.20;;;;;;5006788;28;20426;-69
2021/04/11 01:41:18;;;;;;;1.30;1.00;;;21.00;42.20;;;;;;5005872;28;20415;-70
2021/04/11 01:43:45;;;;;;;1.10;1.00;;;21.00;42.30;;;;;;4998521;28;21009;-68
2021/04/11 01:46:11;;;;;;;0.80;0.80;;;21.00;42.30;;;;;;5012746;28;20417;-67
2021/04/11 01:48:37;;;;;;;1.13;0.73;;;21.00;42.40;;;;;;5007149;28;20413;-71
2021/04/11 01:51:04;;;;;;;0.90;0.80;;;21.00;42.40;;;;;;4998399;28;20432;-68
2021/04/11 01:53:30;;;;;;;1.50;0.80;;;21.00;42.30;;;;;;5006742;28;20784;-68
2021/04/11 01:55:56;;;;;;;1.00;1.00;;;21.00;42.30;;;;;;5005071;28;20496;-69
2021/04/11 01:58:23;;;;;;;1.17;0.90;;;21.00;42.20;;;;;;4994065;28;20502;-68
2021/04/11 02:00:51;;;;;;;1.10;1.00;;;21.10;42.30;;;;;;4994606;28;20437;-71
2021/04/11 02:03:18;;;;;;;0.80;0.80;;;21.10;42.30;;;;;;5011063;28;20466;-69
2021/04/11 02:05:45;;;;;;;0.80;0.80;;;21.10;42.30;;;;;;5003849;28;20444;-69
2021/04/11 02:08:14;;;;;;;1.10;0.90;;;21.10;42.30;;;;;;5002019;28;20415;-70
2021/04/11 02:10:53;;;;;;;1.10;1.00;;;21.10;42.30;;;;;;5015886;28;20428;-69
2021/04/11 02:13:25;;;;;;;1.20;1.20;;;21.10;42.30;;;;;;5007314;28;20414;-70
2021/04/11 02:15:53;;;;;;;0.90;0.90;;;21.00;42.40;;;;;;5000664;28;20450;-69
2021/04/11 02:18:19;;;;;;;1.20;1.10;;;21.00;42.50;;;;;;5007290;28;20418;-69
2021/04/11 02:20:46;;;;;;;1.20;1.10;;;21.00;42.60;;;;;;5004839;28;20425;-68
2021/04/11 02:23:14;;;;;;;0.70;0.70;;;20.90;42.50;;;;;;5007386;28;20421;-69
2021/04/11 02:25:41;;;;;;;1.17;0.95;;;20.90;42.60;;;;;;5007173;28;20411;-70
2021/04/11 02:28:07;;;;;;;1.00;1.00;;;20.90;42.70;;;;;;5006084;28;20420;-68
2021/04/11 02:30:33;;;;;;;1.10;1.10;;;20.90;42.70;;;;;;5004130;28;20416;-69
2021/04/11 02:33:00;;;;;;;1.00;1.00;;;20.90;42.80;;;;;;5001473;28;20417;-70
2021/04/11 02:35:27;;;;;;;1.20;1.10;;;20.80;42.80;;;;;;5009384;28;20426;-68
2021/04/11 02:37:55;;;;;;;1.08;0.98;;;20.80;42.80;;;;;;5006646;28;20422;-70
2021/04/11 02:40:25;;;;;;;1.10;1.10;;;20.90;42.80;;;;;;5010723;28;20426;-67
2021/04/11 02:42:51;;;;;;;0.93;0.90;;;20.90;42.80;;;;;;5008589;28;20418;-67
2021/04/11 02:45:19;;;;;;;0.93;0.93;;;20.90;42.80;;;;;;5012117;28;21177;-67
2021/04/11 02:47:46;;;;;;;0.82;0.82;;;20.90;42.60;;;;;;5010389;28;20421;-68
2021/04/11 02:50:13;;;;;;;1.00;1.00;;;20.90;42.70;;;;;;5005545;28;20425;-71
2021/04/11 02:52:41;;;;;;;0.85;0.85;;;20.90;42.70;;;;;;5009333;28;20416;-69
2021/04/11 02:55:08;;;;;;;1.23;0.98;;;20.90;42.70;;;;;;5000876;28;20413;-67
2021/04/11 02:57:34;;;;;;;1.52;0.95;;;20.90;42.70;;;;;;4999080;28;20617;-71
2021/04/11 03:00:01;;;;;;;1.05;0.98;;;20.90;42.80;;;;;;5022330;28;20435;-68
2021/04/11 03:02:27;;;;;;;1.30;1.20;;;20.90;42.90;;;;;;5000392;28;20423;-71
2021/04/11 03:04:53;;;;;;;1.00;1.00;;;20.80;43.00;;;;;;5010237;28;20415;-68
2021/04/11 03:07:22;;;;;;;1.00;1.00;;;20.80;42.80;;;;;;4996936;28;20436;-71
2021/04/11 03:09:51;;;;;;;1.10;1.00;;;20.80;42.90;;;;;;5019263;28;20414;-71
2021/04/11 03:12:17;;;;;;;1.30;1.30;;;20.80;43.00;;;;;;5010272;28;20561;-67
2021/04/11 03:14:43;;;;;;;1.40;0.90;;;20.80;43.00;;;;;;5007908;28;20443;-70
2021/04/11 03:17:11;;;;;;;1.27;1.17;;;20.80;43.00;;;;;;5007568;28;20947;-68
2021/04/11 03:19:39;;;;;;;1.70;1.10;;;20.80;43.00;;;;;;5004996;28;20440;-69
2021/04/11 03:22:05;;;;;;;1.48;1.38;;;20.80;43.00;;;;;;5006219;28;20413;-69
2021/04/11 03:24:32;;;;;;;0.90;0.90;;;20.80;43.00;;;;;;5009004;28;20791;-68
2021/04/11 03:27:02;;;;;;;1.20;1.20;;;20.80;43.10;;;;;;5007579;28;20502;-69
2021/04/11 03:29:32;;;;;;;1.20;1.20;;;20.80;43.00;;;;;;5005762;28;20434;-68
2021/04/11 03:32:01;;;;;;;1.30;1.30;;;20.80;43.10;;;;;;4996325;28;20425;-69
2021/04/11 03:34:28;;;;;;;1.48;1.40;;;20.80;43.00;;;;;;4996667;28;20454;-71
2021/04/11 03:36:54;;;;;;;1.02;1.02;;;20.80;43.00;;;;;;5016495;28;20419;-68
2021/04/11 03:39:20;;;;;;;1.30;1.30;;;20.90;43.10;;;;;;5007941;28;20787;-68
2021/04/11 03:41:47;;;;;;;1.10;1.10;;;20.90;43.00;;;;;;5009263;28;20390;-69
2021/04/11 03:44:15;;;;;;;1.33;1.27;;;20.90;42.90;;;;;;5008637;28;20424;-68
2021/04/11 03:46:43;;;;;;;1.20;1.10;;;20.90;43.00;;;;;;5005374;28;20436;-69
2021/04/11 03:49:19;;;;;;;1.23;1.23;;;20.90;43.00;;;;;;5006793;28;20413;-70
2021/04/11 03:51:47;;;;;;;1.30;1.30;;;20.90;42.90;;;;;;5005652;28;20429;-72
2021/04/11 03:54:14;;;;;;;1.30;1.20;;;20.90;42.90;;;;;;5014336;28;20498;-69
2021/04/11 03:56:41;;;;;;;1.30;1.30;;;20.90;43.00;;;;;;5007524;28;20420;-69
2021/04/11 03:59:08;;;;;;;1.40;1.40;;;20.80;43.00;;;;;;5006975;28;20415;-67
2021/04/11 04:01:36;;;;;;;1.48;1.38;;;20.80;43.00;;;;;;5002290;28;20754;-68
2021/04/11 04:04:04;;;;;;;1.52;1.48;;;20.80;43.10;;;;;;5007625;28;20403;-69
2021/04/11 04:06:31;;;;;;;1.30;1.20;;;20.80;43.10;;;;;;4988348;28;20442;-68
2021/04/11 04:08:57;;;;;;;1.10;1.10;;;20.70;43.00;;;;;;4999217;28;20422;-70
2021/04/11 04:11:39;;;;;;;1.33;1.33;;;20.80;43.20;;;;;;4999308;28;20888;-68
2021/04/11 04:14:14;;;;;;;1.40;1.40;;;20.80;43.20;;;;;;4997541;28;21153;-70
2021/04/11 04:16:49;;;;;;;1.60;1.50;;;20.80;43.20;;;;;;4995696;28;20417;-71
2021/04/11 04:19:31;;;;;;;1.50;1.50;;;20.80;43.20;;;;;;5004572;28;20444;-68
2021/04/11 04:22:21;;;;;;;1.30;1.20;;;20.80;43.20;;;;;;5006194;28;20415;-67
2021/04/11 04:24:49;;;;;;;1.30;1.30;;;20.80;43.10;;;;;;5004994;28;20773;-73
2021/04/11 04:27:32;;;;;;;1.70;1.60;;;20.80;43.20;;;;;;5006831;28;20443;-71
2021/04/11 04:30:06;;;;;;;1.30;1.30;;;20.80;43.20;;;;;;5003107;28;20425;-68
2021/04/11 04:32:36;;;;;;;1.40;1.40;;;20.80;43.10;;;;;;5002771;28;20477;-68
2021/04/11 04:35:10;;;;;;;1.50;1.40;;;20.80;43.20;;;;;;5007902;28;21452;-68
2021/04/11 04:37:48;;;;;;;1.20;1.20;;;20.80;43.10;;;;;;5002938;28;20490;-69
2021/04/11 04:40:20;;;;;;;1.30;1.30;;;20.80;43.90;;;;;;4995667;28;20409;-69
2021/04/11 04:42:48;;;;;;;1.40;1.30;;;20.90;43.20;;;;;;5009435;28;20475;-69
2021/04/11 04:45:29;;;;;;;1.40;1.40;;;20.80;43.10;;;;;;4981445;28;20548;-70
2021/04/11 04:47:57;;;;;;;1.30;1.20;;;20.80;43.10;;;;;;5012210;28;20432;-70
2021/04/11 04:50:24;;;;;;;1.50;1.40;;;20.80;43.10;;;;;;4997187;28;20421;-68
2021/04/11 04:52:58;;;;;;;1.27;1.17;;;20.80;43.20;;;;;;5004495;28;20419;-70
2021/04/11 04:55:25;;;;;;;1.40;1.30;;;20.80;43.20;;;;;;5001469;28;20432;-73
2021/04/11 04:57:54;;;;;;;1.40;1.40;;;20.80;43.20;;;;;;5020086;28;20421;-69
2021/04/11 05:00:23;;;;;;;1.30;1.30;;;20.80;43.20;;;;;;5009466;28;20421;-69
2021/04/11 05:02:51;;;;;;;1.20;1.20;;;20.80;43.20;;;;;;5004706;28;20457;-67
2021/04/11 05:05:18;;;;;;;1.20;1.20;;;20.80;43.10;;;;;;5015795;28;20441;-70
2021/04/11 05:07:47;;;;;;;1.20;1.20;;;20.90;43.10;;;;;;4988690;28;20417;-69
2021/04/11 05:10:16;;;;;;;1.80;1.08;;;20.90;43.20;;;;;;4983834;28;20416;-70
2021/04/11 05:12:44;;;;;;;1.20;1.20;;;20.90;43.20;;;;;;4999514;28;20939;-70
2021/04/11 05:15:12;;;;;;;1.20;1.20;;;20.90;43.20;;;;;;4988830;28;20429;-69
2021/04/11 05:17:41;;;;;;;1.50;1.40;;;21.00;43.20;;;;;;4982530;28;20919;-70
2021/04/11 05:20:10;;;;;;;1.45;1.45;;;21.00;43.20;;;;;;4994619;28;20442;-69
2021/04/11 05:22:38;;;;;;;1.38;1.38;;;21.00;43.10;;;;;;4989408;28;21325;-68
2021/04/11 05:25:09;;;;;;;1.20;1.20;;;21.00;43.20;;;;;;4992434;28;20418;-67
2021/04/11 05:27:42;;;;;;;1.27;1.23;;;20.90;43.20;;;;;;4985315;28;20438;-71
2021/04/11 05:30:10;;;;;;;1.15;1.15;;;20.90;43.30;;;;;;4983962;28;20413;-69
2021/04/11 05:32:36;;;;;;;1.30;1.23;;;20.90;43.30;;;;;;4986738;28;20415;-68
2021/04/11 05:35:04;;;;;;;1.30;1.20;;;20.90;43.30;;;;;;5000345;28;20418;-68
2021/04/11 05:37:34;;;;;;;1.42;1.33;;;20.90;43.40;;;;;;5009879;28;20403;-68
2021/04/11 05:40:04;;;;;;;1.30;1.30;;;20.90;43.30;;;;;;5005636;28;20926;-70
2021/04/11 05:42:36;;;;;;;1.30;1.20;;;20.90;43.40;;;;;;5005732;28;20410;-68
2021/04/11 05:45:05;;;;;;;1.40;1.40;;;20.90;43.40;;;;;;5006446;28;20450;-73
2021/04/11 05:47:36;;;;;;;1.20;1.20;;;20.90;43.40;;;;;;5003029;28;21053;-68
2021/04/11 05:50:05;;;;;;;1.10;1.10;;;21.00;43.40;;;;;;5006180;28;20419;-69
2021/04/11 05:52:33;;;;;;;1.30;1.30;;;21.00;43.20;;;;;;5000853;28;20414;-69
2021/04/11 05:54:59;;;;;;;1.60;1.60;;;21.10;43.30;;;;;;5006206;28;20422;-70
2021/04/11 05:57:27;;;;;;;1.63;1.52;;;21.10;43.20;;;;;;4992801;28;20444;-69
2021/04/11 05:59:54;;;;;;;1.00;1.00;;;21.10;43.10;;;;;;5013658;28;20464;-69
2021/04/11 06:02:25;;;;;;;1.30;1.30;;;21.10;43.00;;;;;;5001927;28;20838;-69
2021/04/11 06:04:52;;;;;;;1.30;1.30;;;21.10;43.00;;;;;;5005380;28;20419;-69
2021/04/11 06:07:20;;;;;;;1.20;1.20;;;21.10;43.10;;;;;;5006616;28;20481;-67
2021/04/11 06:09:47;;;;;;;1.00;1.00;;;21.10;43.20;;;;;;5006388;28;20405;-68
2021/04/11 06:12:18;;;;;;;1.80;1.70;;;21.10;43.20;;;;;;5005368;28;20566;-71
2021/04/11 06:14:46;;;;;;;1.40;1.40;;;21.00;43.40;;;;;;5004237;28;20753;-70
2021/04/11 06:17:12;;;;;;;1.50;1.40;;;21.00;43.40;;;;;;4996910;28;20966;-71
2021/04/11 06:19:38;;;;;;;1.20;1.20;;;21.00;43.50;;;;;;4979125;28;20423;-70
2021/04/11 06:22:09;;;;;;;2.00;1.40;;;20.90;43.50;;;;;;4991106;28;21172;-70
2021/04/11 06:24:43;;;;;;;1.35;1.35;;;21.00;43.50;;;;;;4996475;28;20408;-70
2021/04/11 06:27:16;;;;;;;1.40;1.30;;;21.00;43.40;;;;;;4988802;28;20421;-70
2021/04/11 06:29:49;;;;;;;1.40;1.40;;;21.00;43.50;;;;;;4997066;28;20399;-69
2021/04/11 06:32:15;;;;;;;1.70;1.40;;;21.00;43.50;;;;;;4972891;28;20428;-71
2021/04/11 06:34:43;;;;;;;1.40;1.40;;;21.00;43.50;;;;;;4997319;28;20422;-69
2021/04/11 06:37:11;;;;;;;1.10;1.10;;;21.00;43.50;;;;;;4948806;28;20420;-69
2021/04/11 06:39:40;;;;;;;1.80;1.70;;;21.00;43.40;;;;;;5002755;28;20421;-69
2021/04/11 06:42:32;;;;;;;1.50;1.40;;;21.00;43.50;;;;;;5006526;28;20442;-70
2021/04/11 06:45:14;;;;;;;1.30;1.30;;;21.00;43.50;;;;;;4992422;28;20415;-69
2021/04/11 06:48:12;;;;;;;1.55;1.45;;;21.10;43.50;;;;;;4974549;28;21011;-71
2021/04/11 06:50:55;;;;;;;1.50;1.40;;;21.10;43.40;;;;;;4995002;28;20441;-72
2021/04/11 06:53:35;;;;;;;1.20;1.20;;;21.20;43.40;;;;;;5008870;28;20888;-68
2021/04/11 06:56:11;;;;;;;1.20;1.20;;;21.20;43.30;;;;;;4994976;28;20431;-69
2021/04/11 06:58:41;;;;;;;1.60;1.50;;;21.20;43.30;;;;;;5015035;28;20491;-71
2021/04/11 07:01:31;;;;;;;1.45;1.38;;;21.20;43.30;;;;;;4994055;28;20418;-71
2021/04/11 07:04:40;;;;;;;1.42;1.42;;;21.30;43.30;;;;;;4985381;28;20412;-72
2021/04/11 07:07:20;;;;;;;2.30;1.20;;;21.30;43.20;;;;;;4918869;28;20473;-70
2021/04/11 07:09:50;;;;;;;1.30;1.30;;;21.30;43.10;;;;;;4982284;28;20426;-70
2021/04/11 07:12:54;;;;;;;1.40;1.30;;;21.40;43.20;;;;;;5001176;28;20474;-74
2021/04/11 07:16:01;;;;;;;1.42;1.42;;;21.30;43.00;;;;;;5006260;28;20436;-71
2021/04/11 07:19:02;;;;;;;1.40;1.30;;;21.30;43.10;;;;;;5007616;28;20410;-71
2021/04/11 07:21:54;;;;;;;1.60;1.50;;;21.30;43.20;;;;;;5005821;28;20484;-70
2021/04/11 07:24:51;;;;;;;1.25;1.25;;;21.30;43.30;;;;;;4995151;28;20530;-69
2021/04/11 07:27:26;;;;;;;1.48;1.38;;;21.30;43.40;;;;;;5001623;28;21152;-71
2021/04/11 07:30:11;;;;;;;1.52;1.50;;;21.20;43.40;;;;;;5011864;28;20528;-68
2021/04/11 07:32:58;;;;;;;1.40;1.40;;;21.20;43.50;;;;;;4993518;28;20454;-71
2021/04/11 07:35:32;;;;;;;1.35;1.25;;;21.20;43.60;;;;;;4990180;28;20399;-69
2021/04/11 07:38:18;;;;;;;1.10;1.10;;;21.20;43.60;;;;;;5001243;28;20434;-73
2021/04/11 07:40:56;;;;;;;1.50;1.50;;;21.20;43.50;;;;;;5007746;28;20427;-70
2021/04/11 07:43:28;;;;;;;1.40;1.30;;;21.30;43.50;;;;;;5007219;28;20430;-70
2021/04/11 07:46:28;;;;;;;1.50;1.50;;;21.30;43.50;;;;;;5005004;28;20469;-71
2021/04/11 07:49:34;;;;;;;1.20;1.20;;;21.30;43.40;;;;;;4991868;28;20407;-69
2021/04/11 07:52:06;;;;;;;1.38;1.38;;;21.30;43.30;;;;;;5005150;28;20415;-70
2021/04/11 07:54:41;;;;;;;1.30;1.30;;;21.30;43.40;;;;;;5008386;28;20414;-69
2021/04/11 07:57:46;;;;;;;1.50;1.40;;;21.30;43.40;;;;;;5006096;28;20429;-71
2021/04/11 08:00:22;;;;;;;2.10;1.40;;;21.30;43.50;;;;;;4976852;28;20420;-69
2021/04/11 08:03:07;;;;;;;1.40;1.30;;;21.20;43.50;;;;;;5005745;28;20415;-72
2021/04/11 08:06:03;;;;;;;1.40;1.30;;;21.20;43.60;;;;;;4977198;28;20413;-71
2021/04/11 08:08:39;;;;;;;1.42;1.42;;;21.20;43.70;;;;;;4970389;28;20411;-72
2021/04/11 08:11:41;;;;;;;1.30;1.20;;;21.20;43.80;;;;;;5007472;28;21415;-70
2021/04/11 08:14:10;;;;;;;1.35;1.25;;;21.20;43.90;;;;;;4974403;28;20397;-70
2021/04/11 08:16:47;;;;;;;1.30;1.30;;;21.20;43.90;;;;;;5006113;28;20458;-73
2021/04/11 08:19:47;;;;;;;1.50;1.40;;;21.20;43.80;;;;;;4993308;28;20810;-72
2021/04/11 08:22:26;;;;;;;1.58;1.55;;;21.20;43.80;;;;;;5007255;28;20409;-73
2021/04/11 08:24:58;;;;;;;1.30;1.30;;;21.20;43.70;;;;;;5001159;28;20425;-68
2021/04/11 08:27:37;;;;;;;1.30;1.30;;;21.30;43.80;;;;;;4982032;28;20469;-69
2021/04/11 08:30:33;;;;;;;1.40;1.30;;;21.20;43.80;;;;;;4998899;28;20419;-69
2021/04/11 08:33:36;;;;;;;1.60;1.50;;;21.20;43.90;;;;;;5006449;28;20411;-71
2021/04/11 08:36:18;;;;;;;1.58;1.48;;;21.20;43.90;;;;;;4999603;28;20444;-70
2021/04/11 08:39:12;;;;;;;1.70;1.50;;;21.20;44.10;;;;;;5004674;28;20416;-69
2021/04/11 08:42:14;;;;;;;1.67;1.50;;;21.10;44.20;;;;;;5006511;28;20421;-71
2021/04/11 08:45:13;;;;;;;1.60;1.50;;;21.10;44.30;;;;;;5006050;28;20924;-70
2021/04/11 08:47:45;;;;;;;1.60;1.50;;;21.10;44.40;;;;;;5000305;28;20401;-70
2021/04/11 08:50:16;;;;;;;1.40;1.40;;;21.10;44.50;;;;;;5007477;28;20562;-68
2021/04/11 08:52:44;;;;;;;1.40;1.30;;;21.10;44.50;;;;;;5004880;28;20413;-68
2021/04/11 08:55:17;;;;;;;1.50;1.50;;;21.10;44.40;;;;;;5012233;28;21461;-70
2021/04/11 08:57:55;;;;;;;1.33;1.23;;;21.10;44.40;;;;;;4996219;28;20411;-71
2021/04/11 09:00:24;;;;;;;1.30;1.30;;;21.10;44.50;;;;;;5002440;28;20417;-69
2021/04/11 09:03:01;;;;;;;1.30;1.30;;;21.10;44.60;;;;;;5015752;28;21053;-70
2021/04/11 09:05:32;;;;;;;1.20;1.20;;;21.10;44.60;;;;;;4995493;28;21006;-72
2021/04/11 09:08:08;;;;;;;1.30;1.30;;;21.10;44.40;;;;;;5017169;28;20502;-71
2021/04/11 09:10:42;;;;;;;1.20;1.20;;;21.20;44.40;;;;;;5005102;28;20419;-70
2021/04/11 09:13:14;;;;;;;1.50;1.50;;;21.20;44.40;;;;;;5002085;28;20436;-70
2021/04/11 09:15:44;;;;;;;1.20;1.20;;;21.20;44.40;;;;;;5002508;28;20400;-71
2021/04/11 09:18:25;;;;;;;1.40;1.10;;;21.20;44.30;;;;;;5004084;28;20424;-72
2021/04/11 09:21:03;;;;;;;1.40;1.30;;;21.20;44.30;;;;;;5006437;28;21103;-70
2021/04/11 09:23:36;;;;;;;1.30;1.30;;;21.20;44.20;;;;;;5004243;28;20416;-70
2021/04/11 09:26:10;;;;;;;1.00;1.00;;;21.20;44.20;;;;;;5003095;28;20482;-70
2021/04/11 09:28:43;;;;;;;1.00;1.00;;;21.20;44.30;;;;;;5005868;28;20935;-71
2021/04/11 09:31:21;;;;;;;1.10;1.10;;;21.20;44.40;;;;;;5002681;28;20417;-69
2021/04/11 09:34:13;;;;;;;1.30;1.20;;;21.20;44.40;;;;;;4998606;28;20814;-70
2021/04/11 09:36:42;;;;;;;1.20;1.20;;;21.20;45.30;;;;;;5001592;28;21204;-69
2021/04/11 09:39:51;;;;;;;1.00;1.00;;;21.20;44.70;;;;;;5000890;28;20431;-69
2021/04/11 09:42:39;;;;;;;1.40;1.40;;;21.20;44.70;;;;;;5005888;28;20428;-71
2021/04/11 09:45:11;;;;;;;1.20;1.20;;;21.10;44.60;;;;;;4992773;28;20421;-70
2021/04/11 09:47:42;;;;;;;1.50;1.40;;;21.10;44.70;;;;;;5009521;28;20431;-70
2021/04/11 09:50:13;;;;;;;1.45;1.45;;;21.10;44.70;;;;;;5004734;28;20416;-69
2021/04/11 09:52:58;;;;;;;1.20;1.20;;;21.10;44.70;;;;;;5004899;28;20415;-70
2021/04/11 09:55:25;;;;;;;1.08;1.08;;;21.10;44.60;;;;;;5008991;28;21156;-70
2021/04/11 09:58:00;;;;;;;1.30;1.30;;;21.10;44.60;;;;;;4995896;28;20422;-70
2021/04/11 10:00:31;;;;;;;1.70;1.70;;;21.10;44.60;;;;;;5010253;28;20419;-70
2021/04/11 10:03:18;;;;;;;1.40;1.40;;;21.10;44.60;;;;;;5004585;28;20418;-69
2021/04/11 10:05:49;;;;;;;1.40;1.30;;;21.20;44.70;;;;;;5003579;28;20527;-71
2021/04/11 10:08:29;;;;;;;1.40;1.40;;;21.20;44.60;;;;;;5003397;28;20447;-71
2021/04/11 10:11:07;;;;;;;1.33;1.25;;;21.20;44.60;;;;;;4993388;28;21283;-73
2021/04/11 10:13:43;;;;;;;1.30;1.30;;;21.20;45.30;;;;;;4994575;28;20764;-69
2021/04/11 10:16:18;;;;;;;1.20;1.20;;;21.20;44.50;;;;;;4993026;28;20482;-70
2021/04/11 10:19:19;;;;;;;1.50;1.40;;;21.20;44.50;;;;;;4998380;28;20567;-71
2021/04/11 10:21:53;;;;;;;1.00;1.00;;;21.20;44.50;;;;;;4933756;28;20421;-71
2021/04/11 10:24:26;;;;;;;1.35;1.35;;;21.20;44.60;;;;;;4998941;28;20437;-73
2021/04/11 10:26:57;;;;;;;1.05;1.00;;;21.20;44.50;;;;;;5004832;28;20553;-69
2021/04/11 10:29:24;;;;;;;0.90;0.90;;;21.20;44.50;;;;;;5006484;28;20423;-70
2021/04/11 10:31:56;;;;;;;1.13;1.13;;;21.20;44.50;;;;;;5005489;28;20422;-70
2021/04/11 10:34:26;;;;;;;1.00;1.00;;;21.10;44.40;;;;;;4998615;28;20435;-70
2021/04/11 10:36:54;;;;;;;1.10;1.10;;;21.10;44.50;;;;;;5005996;28;20473;-71
2021/04/11 10:39:24;;;;;;;1.00;1.00;;;21.10;44.50;;;;;;5003487;28;20422;-70
2021/04/11 10:41:54;;;;;;;1.00;1.00;;;21.10;44.40;;;;;;4996443;28;20426;-72
2021/04/11 10:44:42;;;;;;;1.00;1.00;;;21.10;44.40;;;;;;5000222;28;20426;-72
2021/04/11 10:47:30;;;;;;;0.93;0.93;;;21.20;44.40;;;;;;5002343;28;20427;-72
2021/04/11 10:50:01;;;;;;;1.10;1.10;;;21.20;44.30;;;;;;4999062;28;20417;-69
2021/04/11 10:52:52;;;;;;;0.90;0.90;;;21.20;44.30;;;;;;5007968;28;20421;-70
2021/04/11 10:55:42;;;;;;;0.90;0.90;;;21.20;44.20;;;;;;5013069;28;20424;-68
2021/04/11 10:58:19;;;;;;;0.90;0.90;;;21.20;44.20;;;;;;5001853;28;20430;-70
2021/04/11 11:00:46;;;;;;;0.80;0.80;;;21.20;44.20;;;;;;5008432;28;20424;-71
2021/04/11 11:03:57;;;;;;;0.90;0.90;;;21.20;44.30;;;;;;5012705;28;20418;-69
2021/04/11 11:06:29;;;;;;;1.00;1.00;;;21.20;44.20;;;;;;4923340;28;20431;-69
2021/04/11 11:09:21;;;;;;;0.90;0.90;;;21.20;44.20;;;;;;4995641;28;20494;-68
2021/04/11 11:12:18;;;;;;;0.90;0.90;;;21.10;44.10;;;;;;5010694;28;20471;-70
2021/04/11 11:15:06;;;;;;;0.80;0.80;;;21.10;44.10;;;;;;5006543;28;20393;-70
2021/04/11 11:17:51;;;;;;;2.50;0.80;;;21.10;44.10;;;;;;5005489;28;20481;-70
2021/04/11 11:20:20;;;;;;;0.95;0.95;;;21.10;44.10;;;;;;4980561;28;20436;-70
2021/04/11 11:23:23;;;;;;;0.80;0.80;;;21.10;44.10;;;;;;5008896;28;20475;-69
2021/04/11 11:26:15;;;;;;;1.00;1.00;;;21.10;44.10;;;;;;4986755;28;20834;-70
2021/04/11 11:28:59;;;;;;;0.90;0.90;;;21.10;44.00;;;;;;5005197;28;20820;-71
2021/04/11 11:31:35;;;;;;;0.70;0.70;;;21.10;44.00;;;;;;5004944;28;20419;-71
2021/04/11 11:34:14;;;;;;;0.88;0.88;;;21.10;43.90;;;;;;5002990;28;20410;-72
2021/04/11 11:36:42;;;;;;;0.80;0.80;;;21.20;44.00;;;;;;5010042;28;20404;-73
2021/04/11 11:39:17;;;;;;;0.70;0.70;;;21.20;43.90;;;;;;5008806;28;20785;-70
2021/04/11 11:41:50;;;;;;;0.70;0.70;;;21.10;43.90;;;;;;5007933;28;20507;-72
2021/04/11 11:44:20;;;;;;;0.65;0.65;;;21.10;43.90;;;;;;5013211;28;20425;-69
2021/04/11 11:46:51;;;;;;;0.80;0.80;;;21.10;43.80;;;;;;5016249;28;20467;-70
2021/04/11 11:49:19;;;;;;;0.80;0.80;;;21.10;43.80;;;;;;5014595;28;20454;-69
2021/04/11 11:51:50;;;;;;;0.80;0.80;;;21.10;43.80;;;;;;4995391;28;20426;-70
2021/04/11 11:54:21;;;;;;;0.60;0.60;;;21.20;43.80;;;;;;4996293;28;20848;-71
2021/04/11 11:57:03;;;;;;;0.95;0.80;;;21.20;43.70;;;;;;4998538;28;20421;-69
2021/04/11 11:59:31;;;;;;;0.70;0.70;;;21.20;43.50;;;;;;4995159;28;20430;-72
2021/04/11 12:02:00;;;;;;;0.80;0.80;;;21.20;43.50;;;;;;4975371;28;20476;-68
2021/04/11 12:04:43;;;;;;;0.70;0.70;;;21.20;43.50;;;;;;5013524;28;20578;-72
2021/04/11 12:07:12;;;;;;;0.70;0.70;;;21.20;43.50;;;;;;4985389;28;20411;-70
2021/04/11 12:09:42;;;;;;;0.70;0.70;;;21.10;43.50;;;;;;4995499;28;20423;-69
2021/04/11 12:12:10;;;;;;;0.90;0.70;;;21.10;43.50;;;;;;5007660;28;20423;-69
2021/04/11 12:14:38;;;;;;;0.80;0.80;;;21.10;43.50;;;;;;5007438;28;20424;-72
2021/04/11 12:17:11;;;;;;;0.70;0.70;;;21.10;43.50;;;;;;5005621;28;21124;-69
2021/04/11 12:19:39;;;;;;;0.70;0.70;;;21.10;43.50;;;;;;5010606;28;20436;-70
2021/04/11 12:22:09;;;;;;;0.90;0.90;;;21.10;43.40;;;;;;5006156;28;20864;-71
2021/04/11 12:24:38;;;;;;;0.70;0.70;;;21.10;43.30;;;;;;5003853;28;20447;-72
2021/04/11 12:27:05;;;;;;;0.80;0.70;;;21.10;43.40;;;;;;5004149;28;20404;-68
2021/04/11 12:29:33;;;;;;;0.60;0.60;;;21.10;43.30;;;;;;5008224;28;20415;-71
2021/04/11 12:32:09;;;;;;;0.70;0.70;;;21.00;43.30;;;;;;4992340;28;20405;-70
2021/04/11 12:34:40;;;;;;;0.73;0.73;;;21.00;43.30;;;;;;4986695;28;20408;-69
2021/04/11 12:37:12;;;;;;;0.60;0.60;;;21.00;43.20;;;;;;5002871;28;20423;-70
2021/04/11 12:39:38;;;;;;;0.60;0.52;;;21.00;43.20;;;;;;4994112;28;20431;-71
2021/04/11 12:42:14;;;;;;;0.60;0.60;;;21.00;43.20;;;;;;5015096;28;20430;-70
2021/04/11 12:44:43;;;;;;;0.50;0.50;;;21.10;43.20;;;;;;5004370;28;20419;-70
2021/04/11 12:47:24;;;;;;;1.00;0.70;;;21.10;43.20;;;;;;5006303;28;20420;-71
2021/04/11 12:49:53;;;;;;;0.60;0.60;;;21.10;43.10;;;;;;4963954;28;20423;-71
2021/04/11 12:52:25;;;;;;;1.00;0.60;;;21.10;43.00;;;;;;5008705;28;20758;-71
2021/04/11 12:54:52;;;;;;;0.60;0.52;;;21.10;43.20;;;;;;4998805;28;20421;-68
2021/04/11 12:57:19;;;;;;;0.60;0.60;;;21.10;43.00;;;;;;5003963;28;20420;-69
2021/04/11 12:59:52;;;;;;;0.60;0.60;;;21.10;43.00;;;;;;5022121;28;20470;-72
2021/04/11 13:02:21;;;;;;;0.90;0.60;;;21.10;43.00;;;;;;5002866;28;20425;-70
2021/04/11 13:04:49;;;;;;;0.55;0.55;;;21.10;42.90;;;;;;5004780;28;20478;-68
2021/04/11 13:07:18;;;;;;;0.60;0.60;;;21.00;42.80;;;;;;5001582;28;20428;-71
2021/04/11 13:09:55;;;;;;;0.60;0.50;;;21.00;42.90;;;;;;5007404;28;20421;-71
2021/04/11 13:12:26;;;;;;;1.00;0.80;;;21.00;42.90;;;;;;5002933;28;22320;-71
2021/04/11 13:14:58;;;;;;;0.60;0.60;;;21.00;42.70;;;;;;5007619;28;20727;-70
2021/04/11 13:17:27;;;;;;;1.10;0.60;;;21.00;42.70;;;;;;4998861;28;20427;-73
2021/04/11 13:19:55;;;;;;;2.10;0.70;;;21.00;42.70;;;;;;4995619;28;20431;-71